createdAt,value
2018-11-13T00:00:17.136Z,95.2
2018-11-13T00:01:17.237Z,95.0
2018-11-13T00:02:16.549Z,95.2
2018-11-13T00:03:16.854Z,95.1
2018-11-13T00:04:17.148Z,95.2
2018-11-13T00:05:16.454Z,95.2
2018-11-13T00:06:16.767Z,95.2
2018-11-13T00:07:17.104Z,95.2
2018-11-13T00:08:16.391Z,95.1
2018-11-13T00:09:16.711Z,95.0
2018-11-13T00:10:17.028Z,95.1
2018-11-13T00:11:17.153Z,95.0
2018-11-13T00:12:16.487Z,95.2
2018-11-13T00:13:16.795Z,95.2
2018-11-13T00:14:17.120Z,95.0
2018-11-13T00:15:16.448Z,95.2
2018-11-13T00:16:16.739Z,95.1
2018-11-13T00:17:17.045Z,95.1
2018-11-13T00:18:16.387Z,95.2
2018-11-13T00:19:16.695Z,95.2
2018-11-13T00:20:17.015Z,95.0
2018-11-13T00:21:17.057Z,95.0
2018-11-13T00:22:16.382Z,95.0
2018-11-13T00:23:16.671Z,95.0
2018-11-13T00:24:17.007Z,95.2
2018-11-13T00:25:16.346Z,95.2
2018-11-13T00:26:16.661Z,95.0
2018-11-13T00:27:17.056Z,94.8
2018-11-13T00:28:16.374Z,94.8
2018-11-13T00:29:16.710Z,94.9
2018-11-13T00:30:17.089Z,94.9
2018-11-13T00:31:17.145Z,94.9
2018-11-13T00:32:16.440Z,94.8
2018-11-13T00:33:16.747Z,94.8
2018-11-13T00:34:17.043Z,94.8
2018-11-13T00:35:16.365Z,94.9
2018-11-13T00:36:16.702Z,95.0
2018-11-13T00:37:17.025Z,94.8
2018-11-13T00:38:16.312Z,94.9
2018-11-13T00:39:16.825Z,94.8
2018-11-13T00:40:18.291Z,94.8
2018-11-13T00:41:17.239Z,94.8
2018-11-13T00:42:16.550Z,94.8
2018-11-13T00:43:16.859Z,94.8
2018-11-13T00:44:17.153Z,94.8
2018-11-13T00:45:16.620Z,94.8
2018-11-13T00:46:16.997Z,94.8
2018-11-13T00:47:16.325Z,94.8
2018-11-13T00:48:16.673Z,94.8
2018-11-13T00:49:17.053Z,95.1
2018-11-13T00:50:16.403Z,95.0
2018-11-13T00:51:16.429Z,94.9
2018-11-13T00:52:16.737Z,94.9
2018-11-13T00:53:17.085Z,95.0
2018-11-13T00:54:16.409Z,94.8
2018-11-13T00:55:16.715Z,94.8
2018-11-13T00:56:17.022Z,94.7
2018-11-13T00:57:16.317Z,94.8
2018-11-13T00:58:16.603Z,94.6
2018-11-13T00:59:17.033Z,94.8
2018-11-13T01:00:16.433Z,94.6
2018-11-13T01:01:16.447Z,94.6
2018-11-13T01:02:16.802Z,94.7
2018-11-13T01:03:17.110Z,94.7
2018-11-13T01:04:16.415Z,94.7
2018-11-13T01:05:16.964Z,94.5
2018-11-13T01:06:16.352Z,94.4
2018-11-13T01:07:16.666Z,94.3
2018-11-13T01:08:16.979Z,94.5
2018-11-13T01:09:17.317Z,94.7
2018-11-13T01:10:16.639Z,94.7
2018-11-13T01:11:16.672Z,94.8
2018-11-13T01:12:16.989Z,94.8
2018-11-13T01:13:17.283Z,94.6
2018-11-13T01:14:16.559Z,94.2
2018-11-13T01:15:16.900Z,94.0
2018-11-13T01:16:17.207Z,93.8
2018-11-13T01:17:16.591Z,93.8
2018-11-13T01:18:16.907Z,94.0
2018-11-13T01:19:17.221Z,94.0
2018-11-13T01:20:16.545Z,94.0
2018-11-13T01:21:16.592Z,94.0
2018-11-13T01:22:16.922Z,94.0
2018-11-13T01:23:17.207Z,94.1
2018-11-13T01:24:17.104Z,94.2
2018-11-13T01:25:16.553Z,94.2
2018-11-13T01:26:16.863Z,94.2
2018-11-13T01:27:17.459Z,94.2
2018-11-13T01:28:16.753Z,94.0
2018-11-13T01:29:17.070Z,94.0
2018-11-13T01:30:16.385Z,94.0
2018-11-13T01:31:16.410Z,94.0
2018-11-13T01:32:16.730Z,93.8
2018-11-13T01:33:17.071Z,94.0
2018-11-13T01:34:16.380Z,94.0
2018-11-13T01:35:17.014Z,94.2
2018-11-13T01:36:16.320Z,94.2
2018-11-13T01:37:16.647Z,94.4
2018-11-13T01:38:16.971Z,94.2
2018-11-13T01:39:17.282Z,94.1
2018-11-13T01:40:16.674Z,94.0
2018-11-13T01:41:16.672Z,94.2
2018-11-13T01:42:17.014Z,94.1
2018-11-13T01:43:16.343Z,94.0
2018-11-13T01:44:16.657Z,94.3
2018-11-13T01:45:17.008Z,94.3
2018-11-13T01:46:16.357Z,94.0
2018-11-13T01:47:16.638Z,93.8
2018-11-13T01:48:16.916Z,93.7
2018-11-13T01:49:17.229Z,93.6
2018-11-13T01:50:16.597Z,93.3
2018-11-13T01:51:16.557Z,93.4
2018-11-13T01:52:16.870Z,93.5
2018-11-13T01:53:17.194Z,93.3
2018-11-13T01:54:16.539Z,93.1
2018-11-13T01:55:16.878Z,93.1
2018-11-13T01:56:17.187Z,93.1
2018-11-13T01:57:16.501Z,93.0
2018-11-13T01:58:16.835Z,93.0
2018-11-13T01:59:17.175Z,92.8
2018-11-13T02:00:16.527Z,92.5
2018-11-13T02:01:16.574Z,92.5
2018-11-13T02:02:16.924Z,92.3
2018-11-13T02:03:17.735Z,92.5
2018-11-13T02:04:17.048Z,92.5
2018-11-13T02:05:16.718Z,92.6
2018-11-13T02:06:17.031Z,92.7
2018-11-13T02:07:16.362Z,92.8
2018-11-13T02:08:16.679Z,93.0
2018-11-13T02:09:16.968Z,92.7
2018-11-13T02:10:17.304Z,92.7
2018-11-13T02:11:16.345Z,92.6
2018-11-13T02:12:16.659Z,92.7
2018-11-13T02:13:16.957Z,92.8
2018-11-13T02:14:17.276Z,92.9
2018-11-13T02:15:16.599Z,92.9
2018-11-13T02:16:16.913Z,92.7
2018-11-13T02:17:17.215Z,92.8
2018-11-13T02:18:16.531Z,92.9
2018-11-13T02:19:16.851Z,92.8
2018-11-13T02:20:17.170Z,92.8
2018-11-13T02:21:17.215Z,92.8
2018-11-13T02:22:16.521Z,92.9
2018-11-13T02:23:16.833Z,92.9
2018-11-13T02:24:17.128Z,92.9
2018-11-13T02:25:16.506Z,93.0
2018-11-13T02:26:16.816Z,93.2
2018-11-13T02:27:17.136Z,93.2
2018-11-13T02:28:16.426Z,93.4
2018-11-13T02:29:16.715Z,93.8
2018-11-13T02:30:17.043Z,93.8
2018-11-13T02:31:17.042Z,93.9
2018-11-13T02:32:16.313Z,94.0
2018-11-13T02:33:16.591Z,94.2
2018-11-13T02:34:16.861Z,94.5
2018-11-13T02:35:17.448Z,94.9
2018-11-13T02:36:16.758Z,95.0
2018-11-13T02:37:17.028Z,95.2
2018-11-13T02:38:16.361Z,95.0
2018-11-13T02:39:16.668Z,95.2
2018-11-13T02:40:17.003Z,95.8
2018-11-13T02:41:17.009Z,95.7
2018-11-13T02:42:16.337Z,95.4
2018-11-13T02:43:16.644Z,95.8
2018-11-13T02:44:16.951Z,95.6
2018-11-13T02:45:17.284Z,95.4
2018-11-13T02:46:16.623Z,95.8
2018-11-13T02:47:16.985Z,96.2
2018-11-13T02:48:17.287Z,96.5
2018-11-13T02:49:16.590Z,96.5
2018-11-13T02:50:16.920Z,96.3
2018-11-13T02:51:16.966Z,96.3
2018-11-13T02:52:17.296Z,96.3
2018-11-13T02:53:16.597Z,96.3
2018-11-13T02:54:16.907Z,96.0
2018-11-13T02:55:17.231Z,96.2
2018-11-13T02:56:16.526Z,96.3
2018-11-13T02:57:16.833Z,96.1
2018-11-13T02:58:17.138Z,96.2
2018-11-13T02:59:16.470Z,96.2
2018-11-13T03:00:16.829Z,96.2
2018-11-13T03:01:16.840Z,96.2
2018-11-13T03:02:17.170Z,96.2
2018-11-13T03:03:16.508Z,96.3
2018-11-13T03:04:16.857Z,96.4
2018-11-13T03:05:17.139Z,96.3
2018-11-13T03:06:16.453Z,96.2
2018-11-13T03:07:16.773Z,96.2
2018-11-13T03:08:17.101Z,96.3
2018-11-13T03:09:16.412Z,96.3
2018-11-13T03:10:16.734Z,96.4
2018-11-13T03:11:16.784Z,96.2
2018-11-13T03:12:17.090Z,96.4
2018-11-13T03:13:16.426Z,96.5
2018-11-13T03:14:16.739Z,96.2
2018-11-13T03:15:17.033Z,96.2
2018-11-13T03:16:16.340Z,96.3
2018-11-13T03:17:16.672Z,96.3
2018-11-13T03:18:17.007Z,96.1
2018-11-13T03:19:16.327Z,96.2
2018-11-13T03:20:16.667Z,96.3
2018-11-13T03:21:16.685Z,96.1
2018-11-13T03:22:16.994Z,96.2
2018-11-13T03:23:16.308Z,96.2
2018-11-13T03:24:16.603Z,96.2
2018-11-13T03:25:16.950Z,96.3
2018-11-13T03:26:17.246Z,96.4
2018-11-13T03:27:16.414Z,96.3
2018-11-13T03:28:16.738Z,96.0
2018-11-13T03:29:17.034Z,96.2
2018-11-13T03:30:16.371Z,96.3
2018-11-13T03:31:16.630Z,96.6
2018-11-13T03:32:17.040Z,96.7
2018-11-13T03:33:16.331Z,96.2
2018-11-13T03:34:16.630Z,96.2
2018-11-13T03:35:16.985Z,96.2
2018-11-13T03:36:16.302Z,96.2
2018-11-13T03:37:16.622Z,96.1
2018-11-13T03:38:16.956Z,96.0
2018-11-13T03:39:17.292Z,95.8
2018-11-13T03:40:16.626Z,95.8
2018-11-13T03:41:16.662Z,95.6
2018-11-13T03:42:16.961Z,95.8
2018-11-13T03:43:17.270Z,95.8
2018-11-13T03:44:16.581Z,95.8
2018-11-13T03:45:16.872Z,95.6
2018-11-13T03:46:17.168Z,95.8
2018-11-13T03:47:16.480Z,95.8
2018-11-13T03:48:16.773Z,95.7
2018-11-13T03:49:17.047Z,95.7
2018-11-13T03:50:16.370Z,95.8
2018-11-13T03:51:16.380Z,95.7
2018-11-13T03:52:16.688Z,95.5
2018-11-13T03:53:17.016Z,95.6
2018-11-13T03:54:16.318Z,95.6
2018-11-13T03:55:16.630Z,95.7
2018-11-13T03:56:16.939Z,95.6
2018-11-13T03:57:17.230Z,95.6
2018-11-13T03:58:16.537Z,95.5
2018-11-13T03:59:16.841Z,95.6
2018-11-13T04:00:17.182Z,95.8
2018-11-13T04:01:17.249Z,95.3
2018-11-13T04:02:16.545Z,95.5
2018-11-13T04:03:16.852Z,95.6
2018-11-13T04:04:17.160Z,95.6
2018-11-13T04:05:16.507Z,95.8
2018-11-13T04:06:16.856Z,95.8
2018-11-13T04:07:17.195Z,95.8
2018-11-13T04:08:16.544Z,95.8
2018-11-13T04:09:16.846Z,95.5
2018-11-13T04:10:17.195Z,95.7
2018-11-13T04:11:17.217Z,95.8
2018-11-13T04:12:16.530Z,95.7
2018-11-13T04:13:16.835Z,95.6
2018-11-13T04:14:17.161Z,95.9
2018-11-13T04:15:16.451Z,95.9
2018-11-13T04:16:16.767Z,95.7
2018-11-13T04:17:17.081Z,95.5
2018-11-13T04:18:16.388Z,95.5
2018-11-13T04:19:16.722Z,95.3
2018-11-13T04:20:17.052Z,95.4
2018-11-13T04:21:17.063Z,95.4
2018-11-13T04:22:16.351Z,95.5
2018-11-13T04:23:16.642Z,95.4
2018-11-13T04:24:16.925Z,95.4
2018-11-13T04:25:17.236Z,95.4
2018-11-13T04:26:16.550Z,95.5
2018-11-13T04:27:16.862Z,95.5
2018-11-13T04:28:17.197Z,95.6
2018-11-13T04:29:16.535Z,95.5
2018-11-13T04:30:16.878Z,95.6
2018-11-13T04:31:16.916Z,95.5
2018-11-13T04:32:17.238Z,95.6
2018-11-13T04:33:16.540Z,95.4
2018-11-13T04:34:16.850Z,95.6
2018-11-13T04:35:17.199Z,95.8
2018-11-13T04:36:16.496Z,95.3
2018-11-13T04:37:16.803Z,95.2
2018-11-13T04:38:17.119Z,95.5
2018-11-13T04:39:16.473Z,95.2
2018-11-13T04:40:16.803Z,95.5
2018-11-13T04:41:16.840Z,95.2
2018-11-13T04:42:17.165Z,95.2
2018-11-13T04:43:16.460Z,95.4
2018-11-13T04:44:16.790Z,95.4
2018-11-13T04:45:17.096Z,95.2
2018-11-13T04:46:16.434Z,95.0
2018-11-13T04:47:16.747Z,95.1
2018-11-13T04:48:17.243Z,94.8
2018-11-13T04:49:16.574Z,95.1
2018-11-13T04:50:16.923Z,94.9
2018-11-13T04:51:16.964Z,95.0
2018-11-13T04:52:17.314Z,94.9
2018-11-13T04:53:16.627Z,94.8
2018-11-13T04:54:17.126Z,95.1
2018-11-13T04:55:16.488Z,95.0
2018-11-13T04:56:16.774Z,95.1
2018-11-13T04:57:17.081Z,95.0
2018-11-13T04:58:16.388Z,95.0
2018-11-13T04:59:16.698Z,94.8
2018-11-13T05:00:17.015Z,94.7
2018-11-13T05:01:17.087Z,94.5
2018-11-13T05:02:16.397Z,94.6
2018-11-13T05:03:16.671Z,94.7
2018-11-13T05:04:16.976Z,94.5
2018-11-13T05:05:17.252Z,94.6
2018-11-13T05:06:16.532Z,94.5
2018-11-13T05:07:16.844Z,94.7
2018-11-13T05:08:17.159Z,94.8
2018-11-13T05:09:16.481Z,94.9
2018-11-13T05:10:17.109Z,94.6
2018-11-13T05:11:16.704Z,94.7
2018-11-13T05:12:17.056Z,94.5
2018-11-13T05:13:16.329Z,94.5
2018-11-13T05:14:16.596Z,94.7
2018-11-13T05:15:16.942Z,94.4
2018-11-13T05:16:17.260Z,94.5
2018-11-13T05:17:16.564Z,94.5
2018-11-13T05:18:16.855Z,94.3
2018-11-13T05:19:17.485Z,94.2
2018-11-13T05:20:16.809Z,94.3
2018-11-13T05:21:16.854Z,94.4
2018-11-13T05:22:17.161Z,94.5
2018-11-13T05:23:16.603Z,94.1
2018-11-13T05:24:17.012Z,94.2
2018-11-13T05:25:16.571Z,94.3
2018-11-13T05:26:16.842Z,94.0
2018-11-13T05:27:17.155Z,94.3
2018-11-13T05:28:16.442Z,94.2
2018-11-13T05:29:16.733Z,94.2
2018-11-13T05:30:17.245Z,94.3
2018-11-13T05:31:17.091Z,94.3
2018-11-13T05:32:16.401Z,94.3
2018-11-13T05:33:16.739Z,94.2
2018-11-13T05:34:17.031Z,94.2
2018-11-13T05:35:16.311Z,93.9
2018-11-13T05:36:16.602Z,93.7
2018-11-13T05:37:16.914Z,93.4
2018-11-13T05:38:17.219Z,94.0
2018-11-13T05:39:16.523Z,94.0
2018-11-13T05:40:16.864Z,94.1
2018-11-13T05:41:16.918Z,94.2
2018-11-13T05:42:17.229Z,94.3
2018-11-13T05:43:16.530Z,94.4
2018-11-13T05:44:16.811Z,94.3
2018-11-13T05:45:17.136Z,94.4
2018-11-13T05:46:16.447Z,94.3
2018-11-13T05:47:17.079Z,94.4
2018-11-13T05:48:16.440Z,94.3
2018-11-13T05:49:16.726Z,94.4
2018-11-13T05:50:17.055Z,94.7
2018-11-13T05:51:17.425Z,94.6
2018-11-13T05:52:16.725Z,95.0
2018-11-13T05:53:17.027Z,94.9
2018-11-13T05:54:16.332Z,94.7
2018-11-13T05:55:16.622Z,94.5
2018-11-13T05:56:16.931Z,94.7
2018-11-13T05:57:17.370Z,94.6
2018-11-13T05:58:16.696Z,94.8
2018-11-13T05:59:17.000Z,94.6
2018-11-13T06:00:16.287Z,94.5
2018-11-13T06:01:16.411Z,94.5
2018-11-13T06:02:16.697Z,94.7
2018-11-13T06:03:17.022Z,94.8
2018-11-13T06:04:16.345Z,94.8
2018-11-13T06:05:16.662Z,94.8
2018-11-13T06:06:16.971Z,95.2
2018-11-13T06:07:17.295Z,94.9
2018-11-13T06:08:16.605Z,94.7
2018-11-13T06:09:16.889Z,94.9
2018-11-13T06:10:17.187Z,94.4
2018-11-13T06:11:17.215Z,94.4
2018-11-13T06:12:16.531Z,94.5
2018-11-13T06:13:16.846Z,94.5
2018-11-13T06:14:17.514Z,94.4
2018-11-13T06:15:16.920Z,94.6
2018-11-13T06:16:17.245Z,94.8
2018-11-13T06:17:16.592Z,94.9
2018-11-13T06:18:17.194Z,94.9
2018-11-13T06:19:16.590Z,94.8
2018-11-13T06:20:16.892Z,94.8
2018-11-13T06:21:16.978Z,95.0
2018-11-13T06:22:17.617Z,95.2
2018-11-13T06:23:16.925Z,94.8
2018-11-13T06:24:17.290Z,95.1
2018-11-13T06:25:16.621Z,95.0
2018-11-13T06:26:16.925Z,95.0
2018-11-13T06:27:17.232Z,95.0
2018-11-13T06:28:16.541Z,94.9
2018-11-13T06:29:16.852Z,95.0
2018-11-13T06:30:17.307Z,95.3
2018-11-13T06:31:17.199Z,95.2
2018-11-13T06:32:16.535Z,95.1
2018-11-13T06:33:16.839Z,95.0
2018-11-13T06:34:17.148Z,95.1
2018-11-13T06:35:16.480Z,95.1
2018-11-13T06:36:16.800Z,95.0
2018-11-13T06:37:17.106Z,95.3
2018-11-13T06:38:16.436Z,95.7
2018-11-13T06:39:16.755Z,95.3
2018-11-13T06:40:17.069Z,95.4
2018-11-13T06:41:17.161Z,95.5
2018-11-13T06:42:16.491Z,95.7
2018-11-13T06:43:16.799Z,95.7
2018-11-13T06:44:17.103Z,95.8
2018-11-13T06:45:16.425Z,95.7
2018-11-13T06:46:16.745Z,95.9
2018-11-13T06:47:17.057Z,96.0
2018-11-13T06:48:16.366Z,95.7
2018-11-13T06:49:16.739Z,95.8
2018-11-13T06:50:17.048Z,95.9
2018-11-13T06:51:17.117Z,96.1
2018-11-13T06:52:16.440Z,95.8
2018-11-13T06:53:16.762Z,95.8
2018-11-13T06:54:17.075Z,96.0
2018-11-13T06:55:16.399Z,96.0
2018-11-13T06:56:16.712Z,96.2
2018-11-13T06:57:17.011Z,96.4
2018-11-13T06:58:16.319Z,96.2
2018-11-13T06:59:16.602Z,96.2
2018-11-13T07:00:16.906Z,96.2
2018-11-13T07:01:16.937Z,96.1
2018-11-13T07:02:17.288Z,96.3
2018-11-13T07:03:16.580Z,96.5
2018-11-13T07:04:16.882Z,96.6
2018-11-13T07:05:17.202Z,96.5
2018-11-13T07:06:16.525Z,96.5
2018-11-13T07:07:16.840Z,96.6
2018-11-13T07:08:17.148Z,96.5
2018-11-13T07:09:16.449Z,96.6
2018-11-13T07:10:16.763Z,96.8
2018-11-13T07:11:16.987Z,96.8
2018-11-13T07:12:16.320Z,96.8
2018-11-13T07:13:16.614Z,96.8
2018-11-13T07:14:16.900Z,96.8
2018-11-13T07:15:17.216Z,96.8
2018-11-13T07:16:16.515Z,96.8
2018-11-13T07:17:16.813Z,96.9
2018-11-13T07:18:17.201Z,96.8
2018-11-13T07:19:16.517Z,96.9
2018-11-13T07:20:16.812Z,96.8
2018-11-13T07:21:16.881Z,96.8
2018-11-13T07:22:17.191Z,96.9
2018-11-13T07:23:16.522Z,96.8
2018-11-13T07:24:16.833Z,96.8
2018-11-13T07:25:17.348Z,97.0
2018-11-13T07:26:16.698Z,97.0
2018-11-13T07:27:17.175Z,97.0
2018-11-13T07:28:16.500Z,96.9
2018-11-13T07:29:16.809Z,97.0
2018-11-13T07:30:17.142Z,96.8
2018-11-13T07:31:17.322Z,97.0
2018-11-13T07:32:16.703Z,97.0
2018-11-13T07:33:17.025Z,96.8
2018-11-13T07:34:16.417Z,96.6
2018-11-13T07:35:16.717Z,96.6
2018-11-13T07:36:17.050Z,96.7
2018-11-13T07:37:16.354Z,96.5
2018-11-13T07:38:16.674Z,96.3
2018-11-13T07:39:16.991Z,96.5
2018-11-13T07:40:16.309Z,96.4
2018-11-13T07:41:16.560Z,96.5
2018-11-13T07:42:16.971Z,96.5
2018-11-13T07:43:17.277Z,96.5
2018-11-13T07:44:16.603Z,96.5
2018-11-13T07:45:16.966Z,96.7
2018-11-13T07:46:17.276Z,96.7
2018-11-13T07:47:16.895Z,96.7
2018-11-13T07:48:16.310Z,96.6
2018-11-13T07:49:16.590Z,96.8
2018-11-13T07:50:16.915Z,96.7
2018-11-13T07:51:17.144Z,96.7
2018-11-13T07:52:16.468Z,96.6
2018-11-13T07:53:16.768Z,96.8
2018-11-13T07:54:17.080Z,96.5
2018-11-13T07:55:16.466Z,96.7
2018-11-13T07:56:16.780Z,96.7
2018-11-13T07:57:17.079Z,96.8
2018-11-13T07:58:16.370Z,96.8
2018-11-13T07:59:16.711Z,96.8
2018-11-13T08:00:17.086Z,96.8
2018-11-13T08:01:17.289Z,96.9
2018-11-13T08:02:16.615Z,97.0
2018-11-13T08:03:16.977Z,97.1
2018-11-13T08:04:17.300Z,97.0
2018-11-13T08:05:16.612Z,96.9
2018-11-13T08:06:17.166Z,96.8
2018-11-13T08:07:16.702Z,96.7
2018-11-13T08:08:17.057Z,96.9
2018-11-13T08:09:16.392Z,96.9
2018-11-13T08:10:16.718Z,96.8
2018-11-13T08:11:16.901Z,96.8
2018-11-13T08:12:17.268Z,96.6
2018-11-13T08:13:17.120Z,96.8
2018-11-13T08:14:16.672Z,96.7
2018-11-13T08:15:16.975Z,96.8
2018-11-13T08:16:17.283Z,96.7
2018-11-13T08:17:16.569Z,96.7
2018-11-13T08:18:16.881Z,96.7
2018-11-13T08:19:17.186Z,96.8
2018-11-13T08:20:16.486Z,97.0
2018-11-13T08:21:16.533Z,97.0
2018-11-13T08:22:17.117Z,96.8
2018-11-13T08:23:16.568Z,96.6
2018-11-13T08:24:16.859Z,96.4
2018-11-13T08:25:17.385Z,96.3
2018-11-13T08:26:16.875Z,96.5
2018-11-13T08:27:17.349Z,96.5
2018-11-13T08:28:16.776Z,96.7
2018-11-13T08:29:17.343Z,96.7
2018-11-13T08:30:16.749Z,96.7
2018-11-13T08:31:16.846Z,96.7
2018-11-13T08:32:17.135Z,96.7
2018-11-13T08:33:16.602Z,96.7
2018-11-13T08:34:16.981Z,96.7
2018-11-13T08:35:17.331Z,96.8
2018-11-13T08:36:16.682Z,97.0
2018-11-13T08:37:16.999Z,97.0
2018-11-13T08:38:16.310Z,97.0
2018-11-13T08:39:16.595Z,97.1
2018-11-13T08:40:16.936Z,97.0
2018-11-13T08:41:16.989Z,96.7
2018-11-13T08:42:16.333Z,96.8
2018-11-13T08:43:16.669Z,96.7
2018-11-13T08:44:17.171Z,96.7
2018-11-13T08:45:16.568Z,96.7
2018-11-13T08:46:16.874Z,96.8
2018-11-13T08:47:17.219Z,96.8
2018-11-13T08:48:16.570Z,96.7
2018-11-13T08:49:16.895Z,96.6
2018-11-13T08:50:17.422Z,96.3
2018-11-13T08:51:17.276Z,96.4
2018-11-13T08:52:16.579Z,96.5
2018-11-13T08:53:16.878Z,96.4
2018-11-13T08:54:17.202Z,96.3
2018-11-13T08:55:16.503Z,96.5
2018-11-13T08:56:16.814Z,96.2
2018-11-13T08:57:17.144Z,96.3
2018-11-13T08:58:16.531Z,96.3
2018-11-13T08:59:17.272Z,96.0
2018-11-13T09:00:16.718Z,95.8
2018-11-13T09:01:16.751Z,95.5
2018-11-13T09:02:17.061Z,95.6
2018-11-13T09:03:16.376Z,95.7
2018-11-13T09:04:16.697Z,95.9
2018-11-13T09:05:17.309Z,96.0
2018-11-13T09:06:16.748Z,96.1
2018-11-13T09:07:17.071Z,96.2
2018-11-13T09:08:16.365Z,96.0
2018-11-13T09:09:16.660Z,95.9
2018-11-13T09:10:16.996Z,95.7
2018-11-13T09:11:17.211Z,95.7
2018-11-13T09:12:16.902Z,96.0
2018-11-13T09:13:17.272Z,96.2
2018-11-13T09:14:16.599Z,96.6
2018-11-13T09:15:16.909Z,96.5
2018-11-13T09:16:17.196Z,96.5
2018-11-13T09:17:16.541Z,96.4
2018-11-13T09:18:16.844Z,96.2
2018-11-13T09:19:17.674Z,96.7
2018-11-13T09:20:17.112Z,96.8
2018-11-13T09:21:17.157Z,96.8
2018-11-13T09:22:16.472Z,96.7
2018-11-13T09:23:16.784Z,96.8
2018-11-13T09:24:17.111Z,96.7
2018-11-13T09:25:16.444Z,96.7
2018-11-13T09:26:16.780Z,97.0
2018-11-13T09:27:17.088Z,97.2
2018-11-13T09:28:16.416Z,97.1
2018-11-13T09:29:16.752Z,97.2
2018-11-13T09:30:17.713Z,97.3
2018-11-13T09:31:17.190Z,97.3
2018-11-13T09:32:16.630Z,97.3
2018-11-13T09:33:16.952Z,97.5
2018-11-13T09:34:17.284Z,97.5
2018-11-13T09:35:16.766Z,97.5
2018-11-13T09:36:17.165Z,97.5
2018-11-13T09:37:16.562Z,97.7
2018-11-13T09:38:16.907Z,97.5
2018-11-13T09:39:17.379Z,97.5
2018-11-13T09:40:16.906Z,97.4
2018-11-13T09:41:16.780Z,97.5
2018-11-13T09:42:17.070Z,97.3
2018-11-13T09:43:16.380Z,97.3
2018-11-13T09:44:16.688Z,97.3
2018-11-13T09:45:17.002Z,97.3
2018-11-13T09:46:16.399Z,97.2
2018-11-13T09:47:16.722Z,97.2
2018-11-13T09:48:17.033Z,97.3
2018-11-13T09:49:16.347Z,97.4
2018-11-13T09:50:16.648Z,97.3
2018-11-13T09:51:16.691Z,97.3
2018-11-13T09:52:16.992Z,97.3
2018-11-13T09:53:16.480Z,97.3
2018-11-13T09:54:16.793Z,97.4
2018-11-13T09:55:17.110Z,97.5
2018-11-13T09:56:16.515Z,97.7
2018-11-13T09:57:16.825Z,97.6
2018-11-13T09:58:17.121Z,97.7
2018-11-13T09:59:16.425Z,97.6
2018-11-13T10:00:17.492Z,97.5
2018-11-13T10:01:18.053Z,97.5
2018-11-13T10:02:18.125Z,97.7
2018-11-13T10:03:18.443Z,97.5
2018-11-13T10:04:18.215Z,97.5
2018-11-13T10:05:17.201Z,97.5
2018-11-13T10:06:16.552Z,97.5
2018-11-13T10:07:16.853Z,97.7
2018-11-13T10:08:17.192Z,97.5
2018-11-13T10:09:16.503Z,97.4
2018-11-13T10:10:17.048Z,97.5
2018-11-13T10:11:16.858Z,97.3
2018-11-13T10:12:17.167Z,97.3
2018-11-13T10:13:16.475Z,97.4
2018-11-13T10:14:16.790Z,97.4
2018-11-13T10:15:17.100Z,97.3
2018-11-13T10:16:16.438Z,97.0
2018-11-13T10:17:16.871Z,97.0
2018-11-13T10:18:17.671Z,97.0
2018-11-13T10:19:17.191Z,97.2
2018-11-13T10:20:16.528Z,97.2
2018-11-13T10:21:16.577Z,97.3
2018-11-13T10:22:16.897Z,97.5
2018-11-13T10:23:17.213Z,97.3
2018-11-13T10:24:16.516Z,97.2
2018-11-13T10:25:16.834Z,97.2
2018-11-13T10:26:17.286Z,97.0
2018-11-13T10:27:16.648Z,97.1
2018-11-13T10:28:17.156Z,97.0
2018-11-13T10:29:16.500Z,97.2
2018-11-13T10:30:16.859Z,97.0
2018-11-13T10:31:16.896Z,97.2
2018-11-13T10:32:17.161Z,96.8
2018-11-13T10:33:16.473Z,97.0
2018-11-13T10:34:16.783Z,96.8
2018-11-13T10:35:17.115Z,96.8
2018-11-13T10:36:16.413Z,96.8
2018-11-13T10:37:16.778Z,96.7
2018-11-13T10:38:17.087Z,96.7
2018-11-13T10:39:16.360Z,96.9
2018-11-13T10:40:16.838Z,96.8
2018-11-13T10:41:16.887Z,96.8
2018-11-13T10:42:17.244Z,97.0
2018-11-13T10:43:16.557Z,96.8
2018-11-13T10:44:16.865Z,96.9
2018-11-13T10:45:17.178Z,96.9
2018-11-13T10:46:16.521Z,96.6
2018-11-13T10:47:16.820Z,96.4
2018-11-13T10:48:17.160Z,96.5
2018-11-13T10:49:16.731Z,96.3
2018-11-13T10:50:17.413Z,96.5
2018-11-13T10:51:17.149Z,96.3
2018-11-13T10:52:16.473Z,96.2
2018-11-13T10:53:16.817Z,96.2
2018-11-13T10:54:17.133Z,96.4
2018-11-13T10:55:16.442Z,96.6
2018-11-13T10:56:16.908Z,96.5
2018-11-13T10:57:17.243Z,96.2
2018-11-13T10:58:16.543Z,96.2
2018-11-13T10:59:16.867Z,96.2
2018-11-13T11:00:17.197Z,96.3
2018-11-13T11:01:17.275Z,96.3
2018-11-13T11:02:16.709Z,96.2
2018-11-13T11:03:17.114Z,96.5
2018-11-13T11:04:16.424Z,96.2
2018-11-13T11:05:16.732Z,96.3
2018-11-13T11:06:17.041Z,96.2
2018-11-13T11:07:16.348Z,96.2
2018-11-13T11:08:16.726Z,96.3
2018-11-13T11:09:17.031Z,96.2
2018-11-13T11:10:16.347Z,96.2
2018-11-13T11:11:16.523Z,96.0
2018-11-13T11:12:16.838Z,96.2
2018-11-13T11:13:17.774Z,96.1
2018-11-13T11:14:17.229Z,96.0
2018-11-13T11:15:16.644Z,96.0
2018-11-13T11:16:16.986Z,95.9
2018-11-13T11:17:17.280Z,95.7
2018-11-13T11:18:16.966Z,95.6
2018-11-13T11:19:17.439Z,95.7
2018-11-13T11:20:16.786Z,95.8
2018-11-13T11:21:16.832Z,96.0
2018-11-13T11:22:17.143Z,95.6
2018-11-13T11:23:16.512Z,95.6
2018-11-13T11:24:17.149Z,95.2
2018-11-13T11:25:16.726Z,95.5
2018-11-13T11:26:17.230Z,95.2
2018-11-13T11:27:16.559Z,95.0
2018-11-13T11:28:17.078Z,95.2
2018-11-13T11:29:16.406Z,95.2
2018-11-13T11:30:16.744Z,95.3
2018-11-13T11:31:16.771Z,95.3
2018-11-13T11:32:17.090Z,95.2
2018-11-13T11:33:16.399Z,95.2
2018-11-13T11:34:16.731Z,95.5
2018-11-13T11:35:17.068Z,95.0
2018-11-13T11:36:16.350Z,95.1
2018-11-13T11:37:16.669Z,94.9
2018-11-13T11:38:16.968Z,95.0
2018-11-13T11:39:17.592Z,94.8
2018-11-13T11:40:16.942Z,94.8
2018-11-13T11:41:17.004Z,94.8
2018-11-13T11:42:16.300Z,94.7
2018-11-13T11:43:16.601Z,94.5
2018-11-13T11:44:17.111Z,94.5
2018-11-13T11:45:16.441Z,94.3
2018-11-13T11:46:16.773Z,94.0
2018-11-13T11:47:17.060Z,93.8
2018-11-13T11:48:16.340Z,94.2
2018-11-13T11:49:16.643Z,94.2
2018-11-13T11:50:16.967Z,94.2
2018-11-13T11:51:17.011Z,94.6
2018-11-13T11:52:16.329Z,94.2
2018-11-13T11:53:16.636Z,94.3
2018-11-13T11:54:16.969Z,93.1
2018-11-13T11:55:17.302Z,93.5
2018-11-13T11:56:16.630Z,93.2
2018-11-13T11:57:16.975Z,93.2
2018-11-13T11:58:17.278Z,92.6
2018-11-13T11:59:16.595Z,91.8
2018-11-13T12:00:16.974Z,91.5
2018-11-13T12:01:17.006Z,91.1
2018-11-13T12:02:16.412Z,90.9
2018-11-13T12:03:16.803Z,90.8
2018-11-13T12:04:17.110Z,90.2
2018-11-13T12:05:16.428Z,90.4
2018-11-13T12:06:16.729Z,89.8
2018-11-13T12:07:17.037Z,89.1
2018-11-13T12:08:16.346Z,88.8
2018-11-13T12:09:16.642Z,88.8
2018-11-13T12:10:16.961Z,88.2
2018-11-13T12:11:17.013Z,88.6
2018-11-13T12:12:16.508Z,88.2
2018-11-13T12:13:16.941Z,87.8
2018-11-13T12:14:17.260Z,88.0
2018-11-13T12:15:16.621Z,88.2
2018-11-13T12:16:16.961Z,87.8
2018-11-13T12:17:17.282Z,88.4
2018-11-13T12:18:16.635Z,88.1
2018-11-13T12:19:17.071Z,88.4
2018-11-13T12:20:16.390Z,88.8
2018-11-13T12:21:16.458Z,89.2
2018-11-13T12:22:16.772Z,89.5
2018-11-13T12:23:17.092Z,89.8
2018-11-13T12:24:16.408Z,90.0
2018-11-13T12:25:16.721Z,90.2
2018-11-13T12:26:17.043Z,90.7
2018-11-13T12:27:16.345Z,90.8
2018-11-13T12:28:16.635Z,90.8
2018-11-13T12:29:16.962Z,91.2
2018-11-13T12:30:17.279Z,91.2
2018-11-13T12:31:16.356Z,91.3
2018-11-13T12:32:16.649Z,91.6
2018-11-13T12:33:16.974Z,91.8
2018-11-13T12:34:17.290Z,91.5
2018-11-13T12:35:16.612Z,91.8
2018-11-13T12:36:16.932Z,91.6
2018-11-13T12:37:17.244Z,91.5
2018-11-13T12:38:16.558Z,91.6
2018-11-13T12:39:16.875Z,91.1
2018-11-13T12:40:17.245Z,90.9
2018-11-13T12:41:17.267Z,91.0
2018-11-13T12:42:16.585Z,89.8
2018-11-13T12:43:16.894Z,89.2
2018-11-13T12:44:17.200Z,89.1
2018-11-13T12:45:16.509Z,89.2
2018-11-13T12:46:16.808Z,89.2
2018-11-13T12:47:17.128Z,88.9
2018-11-13T12:48:16.440Z,88.7
2018-11-13T12:49:16.863Z,88.0
2018-11-13T12:50:17.253Z,87.9
2018-11-13T12:51:16.321Z,88.0
2018-11-13T12:52:16.654Z,87.8
2018-11-13T12:53:16.945Z,87.5
2018-11-13T12:54:17.239Z,87.6
2018-11-13T12:55:16.554Z,87.4
2018-11-13T12:56:16.952Z,87.9
2018-11-13T12:57:16.295Z,87.7
2018-11-13T12:58:16.630Z,87.3
2018-11-13T12:59:16.941Z,86.8
2018-11-13T13:00:17.254Z,86.8
2018-11-13T13:01:16.310Z,86.8
2018-11-13T13:02:16.862Z,86.2
2018-11-13T13:03:17.254Z,85.7
2018-11-13T13:04:16.543Z,86.4
2018-11-13T13:05:16.879Z,86.1
2018-11-13T13:06:17.181Z,86.4
2018-11-13T13:07:16.486Z,86.2
2018-11-13T13:08:16.791Z,85.8
2018-11-13T13:09:17.100Z,85.6
2018-11-13T13:10:16.404Z,85.8
2018-11-13T13:11:16.479Z,86.1
2018-11-13T13:12:16.766Z,85.9
2018-11-13T13:13:17.073Z,85.8
2018-11-13T13:14:16.409Z,85.8
2018-11-13T13:15:16.732Z,85.8
2018-11-13T13:16:17.084Z,86.0
2018-11-13T13:17:16.410Z,85.8
2018-11-13T13:18:16.721Z,85.6